sensor_id;sensor_type;location;lat;lon;timestamp;temperature;humidity
42617;DHT22;28250;52.320;0.360;2023-12-07T00:01:06;3.00;99.90
42617;DHT22;28250;52.320;0.360;2023-12-07T00:03:32;3.00;99.90
42617;DHT22;28250;52.320;0.360;2023-12-07T00:05:58;3.10;99.90
42617;DHT22;28250;52.320;0.360;2023-12-07T00:08:24;3.00;99.90
42617;DHT22;28250;52.320;0.360;2023-12-07T00:10:50;3.20;99.90
42617;DHT22;28250;52.320;0.360;2023-12-07T00:13:16;3.30;99.90
42617;DHT22;28250;52.320;0.360;2023-12-07T00:15:42;3.40;99.90
42617;DHT22;28250;52.320;0.360;2023-12-07T00:18:09;3.40;99.90
42617;DHT22;28250;52.320;0.360;2023-12-07T00:20:35;3.50;99.90
42617;DHT22;28250;52.320;0.360;2023-12-07T00:23:01;3.60;99.90
42617;DHT22;28250;52.320;0.360;2023-12-07T00:25:27;3.60;99.90
42617;DHT22;28250;52.320;0.360;2023-12-07T00:27:53;3.60;99.90
42617;DHT22;28250;52.320;0.360;2023-12-07T00:30:19;3.60;99.90
42617;DHT22;28250;52.320;0.360;2023-12-07T00:32:46;3.70;99.90
42617;DHT22;28250;52.320;0.360;2023-12-07T00:35:13;3.70;99.90
42617;DHT22;28250;52.320;0.360;2023-12-07T00:37:40;3.80;99.90
42617;DHT22;28250;52.320;0.360;2023-12-07T00:40:06;3.90;99.90
42617;DHT22;28250;52.320;0.360;2023-12-07T00:42:33;3.90;99.90
42617;DHT22;28250;52.320;0.360;2023-12-07T00:45:02;4.00;99.90
42617;DHT22;28250;52.320;0.360;2023-12-07T00:47:29;4.00;99.90
42617;DHT22;28250;52.320;0.360;2023-12-07T00:49:55;4.00;99.90
42617;DHT22;28250;52.320;0.360;2023-12-07T00:52:21;4.10;99.90
42617;DHT22;28250;52.320;0.360;2023-12-07T00:54:47;4.00;99.90
42617;DHT22;28250;52.320;0.360;2023-12-07T00:57:13;4.10;99.90
42617;DHT22;28250;52.320;0.360;2023-12-07T00:59:39;4.10;99.90
42617;DHT22;28250;52.320;0.360;2023-12-07T01:02:06;4.20;99.90
42617;DHT22;28250;52.320;0.360;2023-12-07T01:04:33;4.30;99.90
42617;DHT22;28250;52.320;0.360;2023-12-07T01:06:59;4.30;99.90
42617;DHT22;28250;52.320;0.360;2023-12-07T01:09:26;4.40;99.90
42617;DHT22;28250;52.320;0.360;2023-12-07T01:11:52;4.30;99.90
42617;DHT22;28250;52.320;0.360;2023-12-07T01:14:18;4.30;99.90
42617;DHT22;28250;52.320;0.360;2023-12-07T01:16:45;4.30;99.90
42617;DHT22;28250;52.320;0.360;2023-12-07T01:19:11;4.30;99.90
42617;DHT22;28250;52.320;0.360;2023-12-07T01:21:41;4.40;99.90
42617;DHT22;28250;52.320;0.360;2023-12-07T01:24:08;4.40;99.90
42617;DHT22;28250;52.320;0.360;2023-12-07T01:26:34;4.40;99.90
42617;DHT22;28250;52.320;0.360;2023-12-07T01:29:01;4.40;99.90
42617;DHT22;28250;52.320;0.360;2023-12-07T01:31:29;4.50;99.90
42617;DHT22;28250;52.320;0.360;2023-12-07T01:33:56;4.60;99.90
42617;DHT22;28250;52.320;0.360;2023-12-07T01:36:22;4.60;99.90
42617;DHT22;28250;52.320;0.360;2023-12-07T01:38:48;4.60;99.90
42617;DHT22;28250;52.320;0.360;2023-12-07T01:41:14;4.60;99.90
42617;DHT22;28250;52.320;0.360;2023-12-07T01:43:46;4.60;99.90
42617;DHT22;28250;52.320;0.360;2023-12-07T01:46:13;4.60;99.90
42617;DHT22;28250;52.320;0.360;2023-12-07T01:48:40;4.70;99.90
42617;DHT22;28250;52.320;0.360;2023-12-07T01:51:07;4.70;99.90
42617;DHT22;28250;52.320;0.360;2023-12-07T01:53:33;4.80;99.90
42617;DHT22;28250;52.320;0.360;2023-12-07T01:56:00;4.90;99.90
42617;DHT22;28250;52.320;0.360;2023-12-07T01:58:26;4.90;99.90
42617;DHT22;28250;52.320;0.360;2023-12-07T02:00:52;4.90;99.90
42617;DHT22;28250;52.320;0.360;2023-12-07T02:03:19;4.90;99.90
42617;DHT22;28250;52.320;0.360;2023-12-07T02:05:49;4.90;99.90
42617;DHT22;28250;52.320;0.360;2023-12-07T02:08:15;4.90;99.90
42617;DHT22;28250;52.320;0.360;2023-12-07T02:10:41;5.10;99.90
42617;DHT22;28250;52.320;0.360;2023-12-07T02:13:07;5.00;99.90
42617;DHT22;28250;52.320;0.360;2023-12-07T02:15:34;4.90;99.90
42617;DHT22;28250;52.320;0.360;2023-12-07T02:18:25;4.80;99.90
42617;DHT22;28250;52.320;0.360;2023-12-07T02:21:18;4.70;99.90
42617;DHT22;28250;52.320;0.360;2023-12-07T02:23:51;4.70;99.90
42617;DHT22;28250;52.320;0.360;2023-12-07T02:26:22;4.60;99.90
42617;DHT22;28250;52.320;0.360;2023-12-07T02:28:48;4.60;99.90
42617;DHT22;28250;52.320;0.360;2023-12-07T02:31:14;4.70;99.90
42617;DHT22;28250;52.320;0.360;2023-12-07T02:33:40;4.70;99.90
42617;DHT22;28250;52.320;0.360;2023-12-07T02:36:07;4.80;99.90
42617;DHT22;28250;52.320;0.360;2023-12-07T02:38:34;4.80;99.90
42617;DHT22;28250;52.320;0.360;2023-12-07T02:41:01;4.80;99.90
42617;DHT22;28250;52.320;0.360;2023-12-07T02:43:27;4.80;99.90
42617;DHT22;28250;52.320;0.360;2023-12-07T02:45:54;4.90;99.90
42617;DHT22;28250;52.320;0.360;2023-12-07T02:48:23;5.00;99.90
42617;DHT22;28250;52.320;0.360;2023-12-07T02:50:49;5.00;99.90
42617;DHT22;28250;52.320;0.360;2023-12-07T02:53:15;5.00;99.90
42617;DHT22;28250;52.320;0.360;2023-12-07T02:55:41;5.10;99.90
42617;DHT22;28250;52.320;0.360;2023-12-07T02:58:07;5.10;99.90
42617;DHT22;28250;52.320;0.360;2023-12-07T03:00:33;5.10;99.90
42617;DHT22;28250;52.320;0.360;2023-12-07T03:02:59;5.00;99.90
42617;DHT22;28250;52.320;0.360;2023-12-07T03:05:25;5.10;99.90
42617;DHT22;28250;52.320;0.360;2023-12-07T03:07:51;5.00;99.90
42617;DHT22;28250;52.320;0.360;2023-12-07T03:10:17;5.00;99.90
42617;DHT22;28250;52.320;0.360;2023-12-07T03:12:43;5.00;99.90
42617;DHT22;28250;52.320;0.360;2023-12-07T03:15:09;5.00;99.90
42617;DHT22;28250;52.320;0.360;2023-12-07T03:17:36;5.10;99.90
42617;DHT22;28250;52.320;0.360;2023-12-07T03:20:03;5.10;99.90
42617;DHT22;28250;52.320;0.360;2023-12-07T03:22:31;5.30;99.90
42617;DHT22;28250;52.320;0.360;2023-12-07T03:24:57;5.30;99.90
42617;DHT22;28250;52.320;0.360;2023-12-07T03:27:23;5.30;99.90
42617;DHT22;28250;52.320;0.360;2023-12-07T03:29:49;5.20;99.90
42617;DHT22;28250;52.320;0.360;2023-12-07T03:32:16;5.30;99.90
42617;DHT22;28250;52.320;0.360;2023-12-07T03:34:43;5.30;99.90
42617;DHT22;28250;52.320;0.360;2023-12-07T03:37:09;5.30;99.90
42617;DHT22;28250;52.320;0.360;2023-12-07T03:39:35;5.40;99.90
42617;DHT22;28250;52.320;0.360;2023-12-07T03:42:01;5.30;99.90
42617;DHT22;28250;52.320;0.360;2023-12-07T03:44:27;5.30;99.90
42617;DHT22;28250;52.320;0.360;2023-12-07T03:46:54;5.40;99.90
42617;DHT22;28250;52.320;0.360;2023-12-07T03:49:20;5.30;99.90
42617;DHT22;28250;52.320;0.360;2023-12-07T03:51:46;5.40;99.90
42617;DHT22;28250;52.320;0.360;2023-12-07T03:54:12;5.50;99.90
42617;DHT22;28250;52.320;0.360;2023-12-07T03:56:38;5.40;99.90
42617;DHT22;28250;52.320;0.360;2023-12-07T03:59:06;5.40;99.90
42617;DHT22;28250;52.320;0.360;2023-12-07T04:01:32;5.40;99.90
42617;DHT22;28250;52.320;0.360;2023-12-07T04:03:58;5.30;99.90
42617;DHT22;28250;52.320;0.360;2023-12-07T04:06:26;5.30;99.90
42617;DHT22;28250;52.320;0.360;2023-12-07T04:08:52;5.30;99.90
42617;DHT22;28250;52.320;0.360;2023-12-07T04:11:19;5.40;99.90
42617;DHT22;28250;52.320;0.360;2023-12-07T04:13:45;5.40;99.90
42617;DHT22;28250;52.320;0.360;2023-12-07T04:16:11;5.60;99.90
42617;DHT22;28250;52.320;0.360;2023-12-07T04:18:38;5.50;99.90
42617;DHT22;28250;52.320;0.360;2023-12-07T04:21:04;5.60;99.90
42617;DHT22;28250;52.320;0.360;2023-12-07T04:23:31;5.60;99.90
42617;DHT22;28250;52.320;0.360;2023-12-07T04:25:57;5.60;99.90
42617;DHT22;28250;52.320;0.360;2023-12-07T04:28:23;5.60;99.90
42617;DHT22;28250;52.320;0.360;2023-12-07T04:30:49;5.70;99.90
42617;DHT22;28250;52.320;0.360;2023-12-07T04:33:15;5.60;99.90
42617;DHT22;28250;52.320;0.360;2023-12-07T04:35:41;5.60;99.90
42617;DHT22;28250;52.320;0.360;2023-12-07T04:38:07;5.60;99.90
42617;DHT22;28250;52.320;0.360;2023-12-07T04:40:33;5.70;99.90
42617;DHT22;28250;52.320;0.360;2023-12-07T04:43:00;5.60;99.90
42617;DHT22;28250;52.320;0.360;2023-12-07T04:45:26;5.70;99.90
42617;DHT22;28250;52.320;0.360;2023-12-07T04:47:52;5.60;99.90
42617;DHT22;28250;52.320;0.360;2023-12-07T04:50:18;5.70;99.90
42617;DHT22;28250;52.320;0.360;2023-12-07T04:52:44;5.70;99.90
42617;DHT22;28250;52.320;0.360;2023-12-07T04:55:10;5.70;99.90
42617;DHT22;28250;52.320;0.360;2023-12-07T04:57:36;5.70;99.90
42617;DHT22;28250;52.320;0.360;2023-12-07T05:00:03;5.80;99.90
42617;DHT22;28250;52.320;0.360;2023-12-07T05:02:33;5.70;99.90
42617;DHT22;28250;52.320;0.360;2023-12-07T05:05:00;5.70;99.90
42617;DHT22;28250;52.320;0.360;2023-12-07T05:07:26;5.70;99.90
42617;DHT22;28250;52.320;0.360;2023-12-07T05:09:52;5.80;99.90
42617;DHT22;28250;52.320;0.360;2023-12-07T05:12:18;5.80;99.90
42617;DHT22;28250;52.320;0.360;2023-12-07T05:14:44;5.70;99.90
42617;DHT22;28250;52.320;0.360;2023-12-07T05:17:10;5.70;99.90
42617;DHT22;28250;52.320;0.360;2023-12-07T05:19:36;5.70;99.90
42617;DHT22;28250;52.320;0.360;2023-12-07T05:22:03;5.70;99.90
42617;DHT22;28250;52.320;0.360;2023-12-07T05:24:29;5.70;99.90
42617;DHT22;28250;52.320;0.360;2023-12-07T05:26:58;5.80;99.90
42617;DHT22;28250;52.320;0.360;2023-12-07T05:29:24;5.80;99.90
42617;DHT22;28250;52.320;0.360;2023-12-07T05:31:50;5.80;99.90
42617;DHT22;28250;52.320;0.360;2023-12-07T05:34:17;5.80;99.90
42617;DHT22;28250;52.320;0.360;2023-12-07T05:36:43;5.80;99.90
42617;DHT22;28250;52.320;0.360;2023-12-07T05:39:09;5.80;99.90
42617;DHT22;28250;52.320;0.360;2023-12-07T05:41:37;5.80;99.90
42617;DHT22;28250;52.320;0.360;2023-12-07T05:44:03;5.80;99.90
42617;DHT22;28250;52.320;0.360;2023-12-07T05:46:29;5.80;99.90
42617;DHT22;28250;52.320;0.360;2023-12-07T05:48:55;5.80;99.90
42617;DHT22;28250;52.320;0.360;2023-12-07T05:51:23;5.80;99.90
42617;DHT22;28250;52.320;0.360;2023-12-07T05:53:49;5.80;99.90
42617;DHT22;28250;52.320;0.360;2023-12-07T05:56:18;5.80;99.90
42617;DHT22;28250;52.320;0.360;2023-12-07T05:58:46;5.80;99.90
42617;DHT22;28250;52.320;0.360;2023-12-07T06:01:16;5.80;99.90
42617;DHT22;28250;52.320;0.360;2023-12-07T06:03:43;5.80;99.90
42617;DHT22;28250;52.320;0.360;2023-12-07T06:06:10;5.90;99.90
42617;DHT22;28250;52.320;0.360;2023-12-07T06:08:40;5.80;99.90
42617;DHT22;28250;52.320;0.360;2023-12-07T06:11:06;5.80;99.90
42617;DHT22;28250;52.320;0.360;2023-12-07T06:13:32;5.90;99.90
42617;DHT22;28250;52.320;0.360;2023-12-07T06:15:59;5.90;99.90
42617;DHT22;28250;52.320;0.360;2023-12-07T06:18:26;5.80;99.90
42617;DHT22;28250;52.320;0.360;2023-12-07T06:20:53;5.90;99.90
42617;DHT22;28250;52.320;0.360;2023-12-07T06:23:19;5.90;99.90
42617;DHT22;28250;52.320;0.360;2023-12-07T06:25:45;5.90;99.90
42617;DHT22;28250;52.320;0.360;2023-12-07T06:28:11;6.00;99.90
42617;DHT22;28250;52.320;0.360;2023-12-07T06:30:38;6.00;99.90
42617;DHT22;28250;52.320;0.360;2023-12-07T06:33:04;6.00;99.90
42617;DHT22;28250;52.320;0.360;2023-12-07T06:35:30;6.00;99.90
42617;DHT22;28250;52.320;0.360;2023-12-07T06:37:56;6.00;99.90
42617;DHT22;28250;52.320;0.360;2023-12-07T06:40:22;6.00;99.90
42617;DHT22;28250;52.320;0.360;2023-12-07T06:42:49;6.00;99.90
42617;DHT22;28250;52.320;0.360;2023-12-07T06:45:15;6.00;99.90
42617;DHT22;28250;52.320;0.360;2023-12-07T06:47:41;6.00;99.90
42617;DHT22;28250;52.320;0.360;2023-12-07T06:50:08;6.10;99.90
42617;DHT22;28250;52.320;0.360;2023-12-07T06:52:39;6.00;99.90
42617;DHT22;28250;52.320;0.360;2023-12-07T06:55:06;6.00;99.90
42617;DHT22;28250;52.320;0.360;2023-12-07T06:57:33;6.00;99.90
42617;DHT22;28250;52.320;0.360;2023-12-07T06:59:59;6.00;99.90
42617;DHT22;28250;52.320;0.360;2023-12-07T07:02:25;6.00;99.90
42617;DHT22;28250;52.320;0.360;2023-12-07T07:04:51;6.00;99.90
42617;DHT22;28250;52.320;0.360;2023-12-07T07:07:17;6.00;99.90
42617;DHT22;28250;52.320;0.360;2023-12-07T07:09:43;6.00;99.90
42617;DHT22;28250;52.320;0.360;2023-12-07T07:12:09;6.00;99.90
42617;DHT22;28250;52.320;0.360;2023-12-07T07:14:36;5.90;99.90
42617;DHT22;28250;52.320;0.360;2023-12-07T07:17:02;5.90;99.90
42617;DHT22;28250;52.320;0.360;2023-12-07T07:19:30;5.90;99.90
42617;DHT22;28250;52.320;0.360;2023-12-07T07:21:56;5.90;99.90
42617;DHT22;28250;52.320;0.360;2023-12-07T07:24:22;6.00;99.90
42617;DHT22;28250;52.320;0.360;2023-12-07T07:26:48;5.90;99.90
42617;DHT22;28250;52.320;0.360;2023-12-07T07:29:14;5.90;99.90
42617;DHT22;28250;52.320;0.360;2023-12-07T07:31:40;5.90;99.90
42617;DHT22;28250;52.320;0.360;2023-12-07T07:34:06;5.80;99.90
42617;DHT22;28250;52.320;0.360;2023-12-07T07:36:33;5.80;99.90
42617;DHT22;28250;52.320;0.360;2023-12-07T07:39:00;5.80;99.90
42617;DHT22;28250;52.320;0.360;2023-12-07T07:41:26;5.90;99.90
42617;DHT22;28250;52.320;0.360;2023-12-07T07:43:52;5.90;99.90
42617;DHT22;28250;52.320;0.360;2023-12-07T07:46:18;5.80;99.90
42617;DHT22;28250;52.320;0.360;2023-12-07T07:48:44;5.90;99.90
42617;DHT22;28250;52.320;0.360;2023-12-07T07:51:10;5.90;99.90
42617;DHT22;28250;52.320;0.360;2023-12-07T07:53:36;5.90;99.90
42617;DHT22;28250;52.320;0.360;2023-12-07T07:56:03;5.80;99.90
42617;DHT22;28250;52.320;0.360;2023-12-07T07:58:29;5.80;99.90
42617;DHT22;28250;52.320;0.360;2023-12-07T08:00:55;5.80;99.90
42617;DHT22;28250;52.320;0.360;2023-12-07T08:03:21;5.80;99.90
42617;DHT22;28250;52.320;0.360;2023-12-07T08:05:47;5.80;99.90
42617;DHT22;28250;52.320;0.360;2023-12-07T08:08:13;5.80;99.90
42617;DHT22;28250;52.320;0.360;2023-12-07T08:10:39;5.80;99.90
42617;DHT22;28250;52.320;0.360;2023-12-07T08:13:05;5.80;99.90
42617;DHT22;28250;52.320;0.360;2023-12-07T08:15:34;5.80;99.90
42617;DHT22;28250;52.320;0.360;2023-12-07T08:18:00;5.80;99.90
42617;DHT22;28250;52.320;0.360;2023-12-07T08:20:27;5.80;99.90
42617;DHT22;28250;52.320;0.360;2023-12-07T08:22:53;5.80;99.90
42617;DHT22;28250;52.320;0.360;2023-12-07T08:25:20;5.80;99.90
42617;DHT22;28250;52.320;0.360;2023-12-07T08:27:47;5.80;99.90
42617;DHT22;28250;52.320;0.360;2023-12-07T08:30:13;5.80;99.90
42617;DHT22;28250;52.320;0.360;2023-12-07T08:32:39;5.80;99.90
42617;DHT22;28250;52.320;0.360;2023-12-07T08:35:06;5.80;99.90
42617;DHT22;28250;52.320;0.360;2023-12-07T08:37:32;5.80;99.90
42617;DHT22;28250;52.320;0.360;2023-12-07T08:39:59;5.80;99.90
42617;DHT22;28250;52.320;0.360;2023-12-07T08:42:25;5.80;99.90
42617;DHT22;28250;52.320;0.360;2023-12-07T08:44:52;5.90;99.90
42617;DHT22;28250;52.320;0.360;2023-12-07T08:47:19;5.80;99.90
42617;DHT22;28250;52.320;0.360;2023-12-07T08:49:47;5.80;99.90
42617;DHT22;28250;52.320;0.360;2023-12-07T08:52:13;5.90;99.90
42617;DHT22;28250;52.320;0.360;2023-12-07T08:54:39;5.90;99.90
42617;DHT22;28250;52.320;0.360;2023-12-07T08:57:05;5.80;99.90
42617;DHT22;28250;52.320;0.360;2023-12-07T08:59:31;5.90;99.90
42617;DHT22;28250;52.320;0.360;2023-12-07T09:01:57;5.90;99.90
42617;DHT22;28250;52.320;0.360;2023-12-07T09:04:23;5.90;99.90
42617;DHT22;28250;52.320;0.360;2023-12-07T09:06:49;5.90;99.90
42617;DHT22;28250;52.320;0.360;2023-12-07T09:09:15;5.90;99.90
42617;DHT22;28250;52.320;0.360;2023-12-07T09:11:41;5.90;99.90
42617;DHT22;28250;52.320;0.360;2023-12-07T09:14:08;5.90;99.90
42617;DHT22;28250;52.320;0.360;2023-12-07T09:16:34;6.00;99.90
42617;DHT22;28250;52.320;0.360;2023-12-07T09:19:00;6.00;99.90
42617;DHT22;28250;52.320;0.360;2023-12-07T09:21:27;6.10;99.90
42617;DHT22;28250;52.320;0.360;2023-12-07T09:23:53;6.10;99.90
42617;DHT22;28250;52.320;0.360;2023-12-07T09:26:19;6.10;99.90
42617;DHT22;28250;52.320;0.360;2023-12-07T09:28:46;6.10;99.90
42617;DHT22;28250;52.320;0.360;2023-12-07T09:31:12;6.20;99.90
42617;DHT22;28250;52.320;0.360;2023-12-07T09:33:38;6.20;99.90
42617;DHT22;28250;52.320;0.360;2023-12-07T09:36:05;6.20;99.90
42617;DHT22;28250;52.320;0.360;2023-12-07T09:38:35;6.20;99.90
42617;DHT22;28250;52.320;0.360;2023-12-07T09:41:03;6.20;99.90
42617;DHT22;28250;52.320;0.360;2023-12-07T09:43:29;6.20;99.90
42617;DHT22;28250;52.320;0.360;2023-12-07T09:45:56;6.20;99.90
42617;DHT22;28250;52.320;0.360;2023-12-07T09:48:24;6.30;99.90
42617;DHT22;28250;52.320;0.360;2023-12-07T09:50:52;6.30;99.90
42617;DHT22;28250;52.320;0.360;2023-12-07T09:53:21;6.30;99.90
42617;DHT22;28250;52.320;0.360;2023-12-07T09:55:47;6.30;99.90
42617;DHT22;28250;52.320;0.360;2023-12-07T09:58:14;6.30;99.90
42617;DHT22;28250;52.320;0.360;2023-12-07T10:00:40;6.30;99.90
42617;DHT22;28250;52.320;0.360;2023-12-07T10:03:06;6.40;99.90
42617;DHT22;28250;52.320;0.360;2023-12-07T10:05:33;6.40;99.90
42617;DHT22;28250;52.320;0.360;2023-12-07T10:08:00;6.40;99.90
42617;DHT22;28250;52.320;0.360;2023-12-07T10:10:26;6.40;99.90
42617;DHT22;28250;52.320;0.360;2023-12-07T10:12:54;6.40;99.90
42617;DHT22;28250;52.320;0.360;2023-12-07T10:15:23;6.40;99.90
42617;DHT22;28250;52.320;0.360;2023-12-07T10:17:58;6.40;99.90
42617;DHT22;28250;52.320;0.360;2023-12-07T10:20:27;6.40;99.90
42617;DHT22;28250;52.320;0.360;2023-12-07T10:23:05;6.40;99.90
42617;DHT22;28250;52.320;0.360;2023-12-07T10:25:37;6.50;99.90
42617;DHT22;28250;52.320;0.360;2023-12-07T10:28:05;6.50;99.90
42617;DHT22;28250;52.320;0.360;2023-12-07T10:30:37;6.50;99.90
42617;DHT22;28250;52.320;0.360;2023-12-07T10:33:08;6.50;99.90
42617;DHT22;28250;52.320;0.360;2023-12-07T10:35:42;6.60;99.90
42617;DHT22;28250;52.320;0.360;2023-12-07T10:38:09;6.50;99.90
42617;DHT22;28250;52.320;0.360;2023-12-07T10:40:35;6.60;99.90
42617;DHT22;28250;52.320;0.360;2023-12-07T10:43:05;6.50;99.90
42617;DHT22;28250;52.320;0.360;2023-12-07T10:45:34;6.50;99.90
42617;DHT22;28250;52.320;0.360;2023-12-07T10:48:03;6.50;99.90
42617;DHT22;28250;52.320;0.360;2023-12-07T10:50:35;6.50;99.90
42617;DHT22;28250;52.320;0.360;2023-12-07T10:53:09;6.60;99.90
42617;DHT22;28250;52.320;0.360;2023-12-07T10:55:46;6.60;99.90
42617;DHT22;28250;52.320;0.360;2023-12-07T10:58:16;6.60;99.90
42617;DHT22;28250;52.320;0.360;2023-12-07T11:00:43;6.60;99.90
42617;DHT22;28250;52.320;0.360;2023-12-07T11:03:16;6.60;99.90
42617;DHT22;28250;52.320;0.360;2023-12-07T11:05:47;6.60;99.90
42617;DHT22;28250;52.320;0.360;2023-12-07T11:08:31;6.60;99.90
42617;DHT22;28250;52.320;0.360;2023-12-07T11:11:12;6.70;99.90
42617;DHT22;28250;52.320;0.360;2023-12-07T11:13:57;6.60;99.90
42617;DHT22;28250;52.320;0.360;2023-12-07T11:16:31;6.60;99.90
42617;DHT22;28250;52.320;0.360;2023-12-07T11:18:59;6.60;99.90
42617;DHT22;28250;52.320;0.360;2023-12-07T11:21:25;6.60;99.90
42617;DHT22;28250;52.320;0.360;2023-12-07T11:23:55;6.60;99.90
42617;DHT22;28250;52.320;0.360;2023-12-07T11:26:24;6.60;99.90
42617;DHT22;28250;52.320;0.360;2023-12-07T11:28:51;6.60;99.90
42617;DHT22;28250;52.320;0.360;2023-12-07T11:31:17;6.60;99.90
42617;DHT22;28250;52.320;0.360;2023-12-07T11:33:43;6.60;99.90
42617;DHT22;28250;52.320;0.360;2023-12-07T11:36:11;6.60;99.90
42617;DHT22;28250;52.320;0.360;2023-12-07T11:39:15;6.60;99.90
42617;DHT22;28250;52.320;0.360;2023-12-07T11:41:44;6.60;99.90
42617;DHT22;28250;52.320;0.360;2023-12-07T11:44:11;6.70;99.90
42617;DHT22;28250;52.320;0.360;2023-12-07T11:46:38;6.70;99.90
42617;DHT22;28250;52.320;0.360;2023-12-07T11:49:04;6.70;99.90
42617;DHT22;28250;52.320;0.360;2023-12-07T11:51:33;6.80;99.90
42617;DHT22;28250;52.320;0.360;2023-12-07T11:53:59;6.70;99.90
42617;DHT22;28250;52.320;0.360;2023-12-07T11:56:25;6.70;99.90
42617;DHT22;28250;52.320;0.360;2023-12-07T11:58:52;6.70;99.90
42617;DHT22;28250;52.320;0.360;2023-12-07T12:01:18;6.70;99.90
42617;DHT22;28250;52.320;0.360;2023-12-07T12:03:44;6.70;99.90
42617;DHT22;28250;52.320;0.360;2023-12-07T12:06:10;6.70;99.90
42617;DHT22;28250;52.320;0.360;2023-12-07T12:08:39;6.80;99.90
42617;DHT22;28250;52.320;0.360;2023-12-07T12:11:06;6.80;99.90
42617;DHT22;28250;52.320;0.360;2023-12-07T12:13:36;6.90;99.90
42617;DHT22;28250;52.320;0.360;2023-12-07T12:16:03;6.80;99.90
42617;DHT22;28250;52.320;0.360;2023-12-07T12:18:29;6.90;99.90
42617;DHT22;28250;52.320;0.360;2023-12-07T12:20:55;6.90;99.90
42617;DHT22;28250;52.320;0.360;2023-12-07T12:23:24;6.90;99.90
42617;DHT22;28250;52.320;0.360;2023-12-07T12:25:51;6.90;99.90
42617;DHT22;28250;52.320;0.360;2023-12-07T12:28:19;6.90;99.90
42617;DHT22;28250;52.320;0.360;2023-12-07T12:30:47;6.90;99.90
42617;DHT22;28250;52.320;0.360;2023-12-07T12:33:14;6.90;99.90
42617;DHT22;28250;52.320;0.360;2023-12-07T12:35:40;6.90;99.90
42617;DHT22;28250;52.320;0.360;2023-12-07T12:38:10;6.90;99.90
42617;DHT22;28250;52.320;0.360;2023-12-07T12:40:39;7.00;99.90
42617;DHT22;28250;52.320;0.360;2023-12-07T12:43:07;7.00;99.90
42617;DHT22;28250;52.320;0.360;2023-12-07T12:45:34;6.90;99.90
42617;DHT22;28250;52.320;0.360;2023-12-07T12:48:00;6.90;99.90
42617;DHT22;28250;52.320;0.360;2023-12-07T12:50:40;6.90;99.90
42617;DHT22;28250;52.320;0.360;2023-12-07T12:53:09;6.90;99.90
42617;DHT22;28250;52.320;0.360;2023-12-07T12:55:37;6.80;99.90
42617;DHT22;28250;52.320;0.360;2023-12-07T12:58:06;6.80;99.90
42617;DHT22;28250;52.320;0.360;2023-12-07T13:00:34;6.80;99.90
42617;DHT22;28250;52.320;0.360;2023-12-07T13:03:03;6.80;99.90
42617;DHT22;28250;52.320;0.360;2023-12-07T13:05:31;6.80;99.90
42617;DHT22;28250;52.320;0.360;2023-12-07T13:08:01;6.80;99.90
42617;DHT22;28250;52.320;0.360;2023-12-07T13:10:27;6.80;99.90
42617;DHT22;28250;52.320;0.360;2023-12-07T13:12:53;6.80;99.90
42617;DHT22;28250;52.320;0.360;2023-12-07T13:15:20;6.80;99.90
42617;DHT22;28250;52.320;0.360;2023-12-07T13:17:46;6.80;99.90
42617;DHT22;28250;52.320;0.360;2023-12-07T13:20:12;6.80;99.90
42617;DHT22;28250;52.320;0.360;2023-12-07T13:22:41;6.80;99.90
42617;DHT22;28250;52.320;0.360;2023-12-07T13:25:12;6.70;99.90
42617;DHT22;28250;52.320;0.360;2023-12-07T13:27:41;6.70;99.90
42617;DHT22;28250;52.320;0.360;2023-12-07T13:30:09;6.70;99.90
42617;DHT22;28250;52.320;0.360;2023-12-07T13:32:35;6.70;99.90
42617;DHT22;28250;52.320;0.360;2023-12-07T13:35:05;6.70;99.90
42617;DHT22;28250;52.320;0.360;2023-12-07T13:37:33;6.60;99.90
42617;DHT22;28250;52.320;0.360;2023-12-07T13:40:00;6.70;99.90
42617;DHT22;28250;52.320;0.360;2023-12-07T13:42:30;6.70;99.90
42617;DHT22;28250;52.320;0.360;2023-12-07T13:44:59;6.70;99.90
42617;DHT22;28250;52.320;0.360;2023-12-07T13:47:27;6.70;99.90
42617;DHT22;28250;52.320;0.360;2023-12-07T13:50:01;6.70;99.90
42617;DHT22;28250;52.320;0.360;2023-12-07T13:52:29;6.70;99.90
42617;DHT22;28250;52.320;0.360;2023-12-07T13:54:57;6.70;99.90
42617;DHT22;28250;52.320;0.360;2023-12-07T13:57:24;6.70;99.90
42617;DHT22;28250;52.320;0.360;2023-12-07T13:59:51;6.70;99.90
42617;DHT22;28250;52.320;0.360;2023-12-07T14:02:18;6.70;99.90
42617;DHT22;28250;52.320;0.360;2023-12-07T14:04:45;6.70;99.90
42617;DHT22;28250;52.320;0.360;2023-12-07T14:07:13;6.80;99.90
42617;DHT22;28250;52.320;0.360;2023-12-07T14:09:41;6.70;99.90
42617;DHT22;28250;52.320;0.360;2023-12-07T14:12:09;6.70;99.90
42617;DHT22;28250;52.320;0.360;2023-12-07T14:14:46;6.70;99.90
42617;DHT22;28250;52.320;0.360;2023-12-07T14:17:14;6.70;99.90
42617;DHT22;28250;52.320;0.360;2023-12-07T14:19:42;6.70;99.90
42617;DHT22;28250;52.320;0.360;2023-12-07T14:22:08;6.60;99.90
42617;DHT22;28250;52.320;0.360;2023-12-07T14:24:38;6.70;99.90
42617;DHT22;28250;52.320;0.360;2023-12-07T14:27:05;6.70;99.90
42617;DHT22;28250;52.320;0.360;2023-12-07T14:29:32;6.70;99.90
42617;DHT22;28250;52.320;0.360;2023-12-07T14:31:59;6.70;99.90
42617;DHT22;28250;52.320;0.360;2023-12-07T14:34:26;6.70;99.90
42617;DHT22;28250;52.320;0.360;2023-12-07T14:36:55;6.70;99.90
42617;DHT22;28250;52.320;0.360;2023-12-07T14:39:21;6.70;99.90
42617;DHT22;28250;52.320;0.360;2023-12-07T14:41:49;6.70;99.90
42617;DHT22;28250;52.320;0.360;2023-12-07T14:44:19;6.70;99.90
42617;DHT22;28250;52.320;0.360;2023-12-07T14:46:48;6.70;99.90
42617;DHT22;28250;52.320;0.360;2023-12-07T14:49:16;6.70;99.90
42617;DHT22;28250;52.320;0.360;2023-12-07T14:51:43;6.70;99.90
42617;DHT22;28250;52.320;0.360;2023-12-07T14:54:09;6.70;99.90
42617;DHT22;28250;52.320;0.360;2023-12-07T14:56:37;6.70;99.90
42617;DHT22;28250;52.320;0.360;2023-12-07T14:59:04;6.70;99.90
42617;DHT22;28250;52.320;0.360;2023-12-07T15:01:30;6.70;99.90
42617;DHT22;28250;52.320;0.360;2023-12-07T15:03:57;6.60;99.90
42617;DHT22;28250;52.320;0.360;2023-12-07T15:06:25;6.70;99.90
42617;DHT22;28250;52.320;0.360;2023-12-07T15:08:52;6.70;99.90
42617;DHT22;28250;52.320;0.360;2023-12-07T15:11:18;6.70;99.90
42617;DHT22;28250;52.320;0.360;2023-12-07T15:13:45;6.80;99.90
42617;DHT22;28250;52.320;0.360;2023-12-07T15:16:11;6.70;99.90
42617;DHT22;28250;52.320;0.360;2023-12-07T15:18:38;6.80;99.90
42617;DHT22;28250;52.320;0.360;2023-12-07T15:21:14;6.70;99.90
42617;DHT22;28250;52.320;0.360;2023-12-07T15:23:41;6.70;99.90
42617;DHT22;28250;52.320;0.360;2023-12-07T15:26:11;6.60;99.90
42617;DHT22;28250;52.320;0.360;2023-12-07T15:28:39;6.60;99.90
42617;DHT22;28250;52.320;0.360;2023-12-07T15:31:06;6.70;99.90
42617;DHT22;28250;52.320;0.360;2023-12-07T15:33:33;6.70;99.90
42617;DHT22;28250;52.320;0.360;2023-12-07T15:36:01;6.70;99.90
42617;DHT22;28250;52.320;0.360;2023-12-07T15:38:29;6.70;99.90
42617;DHT22;28250;52.320;0.360;2023-12-07T15:40:56;6.70;99.90
42617;DHT22;28250;52.320;0.360;2023-12-07T15:43:25;6.70;99.90
42617;DHT22;28250;52.320;0.360;2023-12-07T15:45:51;6.70;99.90